sensor_id;sensor_type;location;lat;lon;timestamp;pressure;altitude;pressure_sealevel;temperature;humidity
19795;BME280;10057;59.402;17.866;2023-11-22T00:02:17;102644.81;;;-2.74;79.49
19795;BME280;10057;59.402;17.866;2023-11-22T00:04:44;102636.97;;;-2.75;79.53
19795;BME280;10057;59.402;17.866;2023-11-22T00:07:11;102631.63;;;-2.78;79.38
19795;BME280;10057;59.402;17.866;2023-11-22T00:09:38;102634.94;;;-2.81;79.44
19795;BME280;10057;59.402;17.866;2023-11-22T00:12:05;102628.66;;;-2.86;79.38
19795;BME280;10057;59.402;17.866;2023-11-22T00:14:32;102629.41;;;-2.89;79.01
19795;BME280;10057;59.402;17.866;2023-11-22T00:17:00;102623.16;;;-2.92;79.05
19795;BME280;10057;59.402;17.866;2023-11-22T00:19:28;102636.09;;;-2.94;79.47
19795;BME280;10057;59.402;17.866;2023-11-22T00:21:57;102628.16;;;-2.97;79.40
19795;BME280;10057;59.402;17.866;2023-11-22T00:24:23;102629.72;;;-3.00;79.18
19795;BME280;10057;59.402;17.866;2023-11-22T00:26:50;102627.84;;;-3.03;79.61
19795;BME280;10057;59.402;17.866;2023-11-22T00:29:16;102618.94;;;-3.08;79.41
19795;BME280;10057;59.402;17.866;2023-11-22T00:31:43;102617.09;;;-3.11;79.10
19795;BME280;10057;59.402;17.866;2023-11-22T00:34:11;102616.06;;;-3.14;79.30
19795;BME280;10057;59.402;17.866;2023-11-22T00:36:38;102615.75;;;-3.20;79.72
19795;BME280;10057;59.402;17.866;2023-11-22T00:39:05;102615.75;;;-3.20;79.42
19795;BME280;10057;59.402;17.866;2023-11-22T00:41:31;102607.72;;;-3.25;79.81
19795;BME280;10057;59.402;17.866;2023-11-22T00:43:58;102606.78;;;-3.27;79.70
19795;BME280;10057;59.402;17.866;2023-11-22T00:46:25;102602.41;;;-3.28;79.77
19795;BME280;10057;59.402;17.866;2023-11-22T00:48:52;102594.53;;;-3.29;79.42
19795;BME280;10057;59.402;17.866;2023-11-22T00:51:19;102599.56;;;-3.33;79.36
19795;BME280;10057;59.402;17.866;2023-11-22T00:53:46;102592.44;;;-3.37;79.31
19795;BME280;10057;59.402;17.866;2023-11-22T00:56:13;102589.66;;;-3.41;79.49
19795;BME280;10057;59.402;17.866;2023-11-22T00:58:40;102597.94;;;-3.48;79.36
19795;BME280;10057;59.402;17.866;2023-11-22T01:01:07;102598.66;;;-3.51;79.22
19795;BME280;10057;59.402;17.866;2023-11-22T01:03:34;102584.56;;;-3.56;79.27
19795;BME280;10057;59.402;17.866;2023-11-22T01:06:01;102584.41;;;-3.59;79.52
19795;BME280;10057;59.402;17.866;2023-11-22T01:08:28;102585.06;;;-3.63;79.33
19795;BME280;10057;59.402;17.866;2023-11-22T01:10:55;102583.25;;;-3.66;79.70
19795;BME280;10057;59.402;17.866;2023-11-22T01:13:24;102595.13;;;-3.69;79.15
19795;BME280;10057;59.402;17.866;2023-11-22T01:15:51;102594.03;;;-3.74;79.38
19795;BME280;10057;59.402;17.866;2023-11-22T01:18:18;102592.09;;;-3.78;79.60
19795;BME280;10057;59.402;17.866;2023-11-22T01:20:45;102593.81;;;-3.79;79.56
19795;BME280;10057;59.402;17.866;2023-11-22T01:23:12;102594.53;;;-3.82;79.33
19795;BME280;10057;59.402;17.866;2023-11-22T01:25:39;102591.78;;;-3.85;79.48
19795;BME280;10057;59.402;17.866;2023-11-22T01:28:05;102593.41;;;-3.87;79.33
19795;BME280;10057;59.402;17.866;2023-11-22T01:30:33;102598.59;;;-3.87;79.56
19795;BME280;10057;59.402;17.866;2023-11-22T01:33:00;102591.47;;;-3.91;79.65
19795;BME280;10057;59.402;17.866;2023-11-22T01:35:26;102593.09;;;-3.93;79.42
19795;BME280;10057;59.402;17.866;2023-11-22T01:37:53;102591.13;;;-3.97;79.49
19795;BME280;10057;59.402;17.866;2023-11-22T01:40:20;102585.00;;;-3.99;79.61
19795;BME280;10057;59.402;17.866;2023-11-22T01:42:46;102581.38;;;-4.02;79.48
19795;BME280;10057;59.402;17.866;2023-11-22T01:45:13;102576.91;;;-4.05;79.50
19795;BME280;10057;59.402;17.866;2023-11-22T01:47:40;102574.97;;;-4.09;79.48
19795;BME280;10057;59.402;17.866;2023-11-22T01:50:08;102578.28;;;-4.12;79.79
19795;BME280;10057;59.402;17.866;2023-11-22T01:52:35;102578.22;;;-4.13;79.72
19795;BME280;10057;59.402;17.866;2023-11-22T01:55:02;102567.59;;;-4.18;79.89
19795;BME280;10057;59.402;17.866;2023-11-22T01:57:33;102563.16;;;-4.20;79.24
19795;BME280;10057;59.402;17.866;2023-11-22T02:00:04;102558.69;;;-4.23;79.73
19795;BME280;10057;59.402;17.866;2023-11-22T02:02:34;102557.88;;;-4.22;79.65
19795;BME280;10057;59.402;17.866;2023-11-22T02:05:01;102550.03;;;-4.23;79.63
19795;BME280;10057;59.402;17.866;2023-11-22T02:07:27;102534.38;;;-4.25;79.33
19795;BME280;10057;59.402;17.866;2023-11-22T02:09:54;102531.72;;;-4.26;79.84
19795;BME280;10057;59.402;17.866;2023-11-22T02:12:22;102516.75;;;-4.32;79.52
19795;BME280;10057;59.402;17.866;2023-11-22T02:14:49;102513.94;;;-4.37;79.24
19795;BME280;10057;59.402;17.866;2023-11-22T02:17:16;102523.31;;;-4.39;79.52
19795;BME280;10057;59.402;17.866;2023-11-22T02:19:45;102524.03;;;-4.41;79.42
19795;BME280;10057;59.402;17.866;2023-11-22T02:22:12;102512.78;;;-4.42;79.53
19795;BME280;10057;59.402;17.866;2023-11-22T02:24:39;102509.13;;;-4.45;80.01
19795;BME280;10057;59.402;17.866;2023-11-22T02:27:06;102506.66;;;-4.44;79.77
19795;BME280;10057;59.402;17.866;2023-11-22T02:29:33;102497.91;;;-4.46;79.70
19795;BME280;10057;59.402;17.866;2023-11-22T02:32:00;102499.66;;;-4.45;79.04
19795;BME280;10057;59.402;17.866;2023-11-22T02:34:26;102496.84;;;-4.49;79.62
19795;BME280;10057;59.402;17.866;2023-11-22T02:36:53;102500.97;;;-4.53;79.54
19795;BME280;10057;59.402;17.866;2023-11-22T02:39:41;102482.50;;;-4.59;79.63
19795;BME280;10057;59.402;17.866;2023-11-22T02:42:13;102490.13;;;-4.62;79.09
19795;BME280;10057;59.402;17.866;2023-11-22T02:44:40;102484.00;;;-4.64;79.42
19795;BME280;10057;59.402;17.866;2023-11-22T02:47:06;102484.78;;;-4.65;79.71
19795;BME280;10057;59.402;17.866;2023-11-22T02:49:33;102480.41;;;-4.66;79.38
19795;BME280;10057;59.402;17.866;2023-11-22T02:52:00;102474.25;;;-4.68;79.29
19795;BME280;10057;59.402;17.866;2023-11-22T02:54:27;102467.41;;;-4.68;79.82
19795;BME280;10057;59.402;17.866;2023-11-22T02:56:55;102467.41;;;-4.68;79.32
19795;BME280;10057;59.402;17.866;2023-11-22T02:59:21;102457.75;;;-4.70;79.47
19795;BME280;10057;59.402;17.866;2023-11-22T03:01:50;102456.00;;;-4.71;79.67
19795;BME280;10057;59.402;17.866;2023-11-22T03:04:17;102461.16;;;-4.71;79.16
19795;BME280;10057;59.402;17.866;2023-11-22T03:06:44;102449.75;;;-4.75;79.55
19795;BME280;10057;59.402;17.866;2023-11-22T03:09:11;102449.66;;;-4.77;79.72
19795;BME280;10057;59.402;17.866;2023-11-22T03:11:40;102443.50;;;-4.79;79.14
19795;BME280;10057;59.402;17.866;2023-11-22T03:14:07;102435.59;;;-4.82;79.21
19795;BME280;10057;59.402;17.866;2023-11-22T03:16:39;102434.69;;;-4.82;79.49
19795;BME280;10057;59.402;17.866;2023-11-22T03:19:05;102445.84;;;-4.83;79.43
19795;BME280;10057;59.402;17.866;2023-11-22T03:21:33;102436.22;;;-4.86;79.19
19795;BME280;10057;59.402;17.866;2023-11-22T03:24:02;102440.44;;;-4.88;78.99
19795;BME280;10057;59.402;17.866;2023-11-22T03:26:32;102436.88;;;-4.90;79.49
19795;BME280;10057;59.402;17.866;2023-11-22T03:28:59;102447.06;;;-4.93;79.77
19795;BME280;10057;59.402;17.866;2023-11-22T03:31:25;102442.72;;;-4.94;79.80
19795;BME280;10057;59.402;17.866;2023-11-22T03:33:53;102434.88;;;-4.95;79.72
19795;BME280;10057;59.402;17.866;2023-11-22T03:36:21;102431.38;;;-4.96;79.15
19795;BME280;10057;59.402;17.866;2023-11-22T03:38:49;102444.97;;;-5.00;79.33
19795;BME280;10057;59.402;17.866;2023-11-22T03:41:16;102443.25;;;-5.00;79.01
19795;BME280;10057;59.402;17.866;2023-11-22T03:43:47;102431.13;;;-5.01;79.16
19795;BME280;10057;59.402;17.866;2023-11-22T03:46:14;102430.25;;;-5.01;79.88
19795;BME280;10057;59.402;17.866;2023-11-22T03:48:40;102426.78;;;-5.02;79.66
19795;BME280;10057;59.402;17.866;2023-11-22T03:51:07;102421.59;;;-5.02;79.23
19795;BME280;10057;59.402;17.866;2023-11-22T03:53:34;102411.97;;;-5.04;79.84
19795;BME280;10057;59.402;17.866;2023-11-22T03:56:01;102414.72;;;-5.01;79.28
19795;BME280;10057;59.402;17.866;2023-11-22T03:58:27;102422.56;;;-5.00;79.75
19795;BME280;10057;59.402;17.866;2023-11-22T04:00:54;102423.47;;;-4.99;79.24
19795;BME280;10057;59.402;17.866;2023-11-22T04:03:21;102422.56;;;-5.00;79.95
19795;BME280;10057;59.402;17.866;2023-11-22T04:05:48;102413.84;;;-5.02;79.79
19795;BME280;10057;59.402;17.866;2023-11-22T04:08:15;102410.44;;;-5.01;79.21
19795;BME280;10057;59.402;17.866;2023-11-22T04:10:41;102401.69;;;-5.03;79.15
19795;BME280;10057;59.402;17.866;2023-11-22T04:13:08;102406.84;;;-5.03;79.69
19795;BME280;10057;59.402;17.866;2023-11-22T04:15:35;102412.03;;;-5.03;79.75
19795;BME280;10057;59.402;17.866;2023-11-22T04:18:02;102403.22;;;-5.06;79.42
19795;BME280;10057;59.402;17.866;2023-11-22T04:20:30;102392.06;;;-5.05;79.33
19795;BME280;10057;59.402;17.866;2023-11-22T04:22:56;102395.44;;;-5.06;79.74
19795;BME280;10057;59.402;17.866;2023-11-22T04:25:23;102386.81;;;-5.07;79.44
19795;BME280;10057;59.402;17.866;2023-11-22T04:27:50;102373.84;;;-5.07;79.81
19795;BME280;10057;59.402;17.866;2023-11-22T04:30:17;102360.84;;;-5.08;79.18
19795;BME280;10057;59.402;17.866;2023-11-22T04:32:44;102357.94;;;-4.98;80.19
19795;BME280;10057;59.402;17.866;2023-11-22T04:35:11;102348.28;;;-4.84;79.25
19795;BME280;10057;59.402;17.866;2023-11-22T04:37:38;102333.13;;;-4.77;79.69
19795;BME280;10057;59.402;17.866;2023-11-22T04:40:05;102336.53;;;-4.78;79.80
19795;BME280;10057;59.402;17.866;2023-11-22T04:42:35;102323.50;;;-4.79;79.70
19795;BME280;10057;59.402;17.866;2023-11-22T04:45:03;102322.28;;;-4.86;79.17
19795;BME280;10057;59.402;17.866;2023-11-22T04:47:30;102313.56;;;-4.88;79.74
19795;BME280;10057;59.402;17.866;2023-11-22T04:49:57;102311.66;;;-4.92;79.54
19795;BME280;10057;59.402;17.866;2023-11-22T04:52:24;102314.06;;;-4.95;79.24
19795;BME280;10057;59.402;17.866;2023-11-22T04:54:50;102304.28;;;-5.01;79.31
19795;BME280;10057;59.402;17.866;2023-11-22T04:57:17;102301.38;;;-5.07;79.74
19795;BME280;10057;59.402;17.866;2023-11-22T04:59:45;102304.06;;;-5.05;79.65
19795;BME280;10057;59.402;17.866;2023-11-22T05:02:12;102303.09;;;-5.07;79.71
19795;BME280;10057;59.402;17.866;2023-11-22T05:04:38;102296.97;;;-5.09;79.37
19795;BME280;10057;59.402;17.866;2023-11-22T05:07:05;102299.44;;;-5.11;79.49
19795;BME280;10057;59.402;17.866;2023-11-22T05:09:31;102304.56;;;-5.12;80.03
19795;BME280;10057;59.402;17.866;2023-11-22T05:11:58;102310.53;;;-5.13;79.33
19795;BME280;10057;59.402;17.866;2023-11-22T05:14:25;102307.00;;;-5.15;79.38
19795;BME280;10057;59.402;17.866;2023-11-22T05:16:53;102294.84;;;-5.16;79.24
19795;BME280;10057;59.402;17.866;2023-11-22T05:19:19;102286.28;;;-5.15;79.81
19795;BME280;10057;59.402;17.866;2023-11-22T05:21:46;102289.66;;;-5.16;79.30
19795;BME280;10057;59.402;17.866;2023-11-22T05:24:13;102289.66;;;-5.16;79.81
19795;BME280;10057;59.402;17.866;2023-11-22T05:26:41;102278.41;;;-5.17;79.84
19795;BME280;10057;59.402;17.866;2023-11-22T05:29:08;102281.91;;;-5.16;79.86
19795;BME280;10057;59.402;17.866;2023-11-22T05:31:36;102281.16;;;-5.14;80.17
19795;BME280;10057;59.402;17.866;2023-11-22T05:34:04;102282.06;;;-5.13;79.50
19795;BME280;10057;59.402;17.866;2023-11-22T05:36:30;102285.63;;;-5.11;80.01
19795;BME280;10057;59.402;17.866;2023-11-22T05:38:57;102280.59;;;-5.08;79.41
19795;BME280;10057;59.402;17.866;2023-11-22T05:41:26;102257.47;;;-5.05;79.61
19795;BME280;10057;59.402;17.866;2023-11-22T05:43:53;102247.34;;;-5.01;79.71
19795;BME280;10057;59.402;17.866;2023-11-22T05:46:22;102242.25;;;-4.99;80.25
19795;BME280;10057;59.402;17.866;2023-11-22T05:48:49;102243.50;;;-4.91;79.68
19795;BME280;10057;59.402;17.866;2023-11-22T05:51:17;102241.97;;;-4.87;79.66
19795;BME280;10057;59.402;17.866;2023-11-22T05:53:44;102244.69;;;-4.84;79.70
19795;BME280;10057;59.402;17.866;2023-11-22T05:56:11;102243.22;;;-4.79;79.66
19795;BME280;10057;59.402;17.866;2023-11-22T05:58:38;102234.81;;;-4.75;79.85
19795;BME280;10057;59.402;17.866;2023-11-22T06:01:05;102229.69;;;-4.73;79.65
19795;BME280;10057;59.402;17.866;2023-11-22T06:03:33;102224.50;;;-4.73;80.04
19795;BME280;10057;59.402;17.866;2023-11-22T06:06:00;102212.53;;;-4.71;79.82
19795;BME280;10057;59.402;17.866;2023-11-22T06:08:27;102202.97;;;-4.72;79.78
19795;BME280;10057;59.402;17.866;2023-11-22T06:10:53;102201.19;;;-4.73;79.98
19795;BME280;10057;59.402;17.866;2023-11-22T06:13:23;102190.84;;;-4.73;79.89
19795;BME280;10057;59.402;17.866;2023-11-22T06:15:50;102179.50;;;-4.76;79.78
19795;BME280;10057;59.402;17.866;2023-11-22T06:18:17;102179.66;;;-4.72;79.75
19795;BME280;10057;59.402;17.866;2023-11-22T06:20:45;102161.22;;;-4.79;79.64
19795;BME280;10057;59.402;17.866;2023-11-22T06:23:14;102163.03;;;-4.78;79.83
19795;BME280;10057;59.402;17.866;2023-11-22T06:25:41;102155.09;;;-4.81;79.38
19795;BME280;10057;59.402;17.866;2023-11-22T06:28:08;102134.91;;;-4.88;79.30
19795;BME280;10057;59.402;17.866;2023-11-22T06:30:35;102135.59;;;-4.92;79.41
19795;BME280;10057;59.402;17.866;2023-11-22T06:33:01;102141.66;;;-4.91;79.25
19795;BME280;10057;59.402;17.866;2023-11-22T06:35:28;102142.38;;;-4.94;79.30
19795;BME280;10057;59.402;17.866;2023-11-22T06:37:55;102137.94;;;-4.96;79.48
19795;BME280;10057;59.402;17.866;2023-11-22T06:40:22;102118.72;;;-5.02;79.79
19795;BME280;10057;59.402;17.866;2023-11-22T06:42:49;102103.91;;;-5.04;79.50
19795;BME280;10057;59.402;17.866;2023-11-22T06:45:15;102103.91;;;-5.04;79.61
19795;BME280;10057;59.402;17.866;2023-11-22T06:47:43;102098.75;;;-5.04;79.62
19795;BME280;10057;59.402;17.866;2023-11-22T06:50:11;102098.00;;;-5.02;80.31
19795;BME280;10057;59.402;17.866;2023-11-22T06:52:39;102102.31;;;-5.02;79.74
19795;BME280;10057;59.402;17.866;2023-11-22T06:55:06;102104.22;;;-4.98;80.08
19795;BME280;10057;59.402;17.866;2023-11-22T06:57:36;102092.22;;;-4.96;79.69
19795;BME280;10057;59.402;17.866;2023-11-22T07:00:06;102082.00;;;-4.93;79.79
19795;BME280;10057;59.402;17.866;2023-11-22T07:02:36;102083.03;;;-4.89;79.77
19795;BME280;10057;59.402;17.866;2023-11-22T07:05:04;102076.25;;;-4.87;80.13
19795;BME280;10057;59.402;17.866;2023-11-22T07:07:36;102065.31;;;-4.82;79.88
19795;BME280;10057;59.402;17.866;2023-11-22T07:10:03;102053.44;;;-4.77;80.15
19795;BME280;10057;59.402;17.866;2023-11-22T07:12:32;102033.00;;;-4.70;80.22
19795;BME280;10057;59.402;17.866;2023-11-22T07:15:01;102040.19;;;-4.65;80.51
19795;BME280;10057;59.402;17.866;2023-11-22T07:17:29;102038.72;;;-4.58;80.13
19795;BME280;10057;59.402;17.866;2023-11-22T07:19:56;102039.81;;;-4.53;80.61
19795;BME280;10057;59.402;17.866;2023-11-22T07:22:23;102049.66;;;-4.46;80.18
19795;BME280;10057;59.402;17.866;2023-11-22T07:24:50;102062.06;;;-4.39;80.60
19795;BME280;10057;59.402;17.866;2023-11-22T07:27:26;102068.41;;;-4.32;80.41
19795;BME280;10057;59.402;17.866;2023-11-22T07:29:53;102064.22;;;-4.29;80.54
19795;BME280;10057;59.402;17.866;2023-11-22T07:32:20;102063.50;;;-4.26;80.37
19795;BME280;10057;59.402;17.866;2023-11-22T07:34:47;102065.38;;;-4.22;80.31
19795;BME280;10057;59.402;17.866;2023-11-22T07:37:14;102059.66;;;-4.15;80.21
19795;BME280;10057;59.402;17.866;2023-11-22T07:39:41;102058.22;;;-4.08;80.64
19795;BME280;10057;59.402;17.866;2023-11-22T07:42:10;102046.28;;;-4.05;80.49
19795;BME280;10057;59.402;17.866;2023-11-22T07:44:37;102035.47;;;-3.94;80.32
19795;BME280;10057;59.402;17.866;2023-11-22T07:47:05;102013.16;;;-3.91;80.41
19795;BME280;10057;59.402;17.866;2023-11-22T07:49:38;102019.91;;;-3.73;81.11
19795;BME280;10057;59.402;17.866;2023-11-22T07:52:05;102012.91;;;-3.55;81.25
19795;BME280;10057;59.402;17.866;2023-11-22T07:54:33;102006.34;;;-3.45;80.30
19795;BME280;10057;59.402;17.866;2023-11-22T07:57:02;101996.19;;;-3.41;80.84
19795;BME280;10057;59.402;17.866;2023-11-22T07:59:28;101986.72;;;-3.39;80.93
19795;BME280;10057;59.402;17.866;2023-11-22T08:01:55;101985.13;;;-3.35;81.18
19795;BME280;10057;59.402;17.866;2023-11-22T08:04:23;101983.66;;;-3.28;80.50
19795;BME280;10057;59.402;17.866;2023-11-22T08:06:51;101982.16;;;-3.23;80.63
19795;BME280;10057;59.402;17.866;2023-11-22T08:09:19;101978.84;;;-3.19;81.13
19795;BME280;10057;59.402;17.866;2023-11-22T08:11:46;101975.53;;;-3.15;80.73
19795;BME280;10057;59.402;17.866;2023-11-22T08:14:15;101960.06;;;-3.12;80.56
19795;BME280;10057;59.402;17.866;2023-11-22T08:16:41;101959.41;;;-3.06;80.60
19795;BME280;10057;59.402;17.866;2023-11-22T08:19:09;101957.06;;;-3.00;81.23
19795;BME280;10057;59.402;17.866;2023-11-22T08:21:36;101939.00;;;-2.97;80.58
19795;BME280;10057;59.402;17.866;2023-11-22T08:24:03;101935.69;;;-2.93;80.81
19795;BME280;10057;59.402;17.866;2023-11-22T08:26:30;101926.41;;;-2.87;81.06
19795;BME280;10057;59.402;17.866;2023-11-22T08:28:57;101924.06;;;-2.79;80.68
19795;BME280;10057;59.402;17.866;2023-11-22T08:31:24;101913.03;;;-2.73;81.31
19795;BME280;10057;59.402;17.866;2023-11-22T08:33:50;101907.13;;;-2.69;80.62
19795;BME280;10057;59.402;17.866;2023-11-22T08:36:17;101892.56;;;-2.64;80.95
19795;BME280;10057;59.402;17.866;2023-11-22T08:38:45;101886.63;;;-2.60;80.92
19795;BME280;10057;59.402;17.866;2023-11-22T08:41:11;101872.97;;;-2.54;81.20
19795;BME280;10057;59.402;17.866;2023-11-22T08:43:41;101859.34;;;-2.47;80.82
19795;BME280;10057;59.402;17.866;2023-11-22T08:46:07;101856.00;;;-2.43;80.60
19795;BME280;10057;59.402;17.866;2023-11-22T08:48:41;101850.16;;;-2.38;80.75
19795;BME280;10057;59.402;17.866;2023-11-22T08:51:09;101846.81;;;-2.33;81.08
19795;BME280;10057;59.402;17.866;2023-11-22T08:53:37;101846.06;;;-2.29;81.03
19795;BME280;10057;59.402;17.866;2023-11-22T08:56:04;101828.91;;;-2.24;80.78
19795;BME280;10057;59.402;17.866;2023-11-22T08:58:32;101815.19;;;-2.20;81.39
19795;BME280;10057;59.402;17.866;2023-11-22T09:01:00;101812.69;;;-2.17;81.24
19795;BME280;10057;59.402;17.866;2023-11-22T09:03:27;101799.88;;;-2.11;80.82
19795;BME280;10057;59.402;17.866;2023-11-22T09:05:55;101787.06;;;-2.05;81.03
19795;BME280;10057;59.402;17.866;2023-11-22T09:08:22;101775.06;;;-2.00;81.15
19795;BME280;10057;59.402;17.866;2023-11-22T09:10:53;101770.00;;;-1.95;81.59
19795;BME280;10057;59.402;17.866;2023-11-22T09:13:21;101754.56;;;-1.91;81.11
19795;BME280;10057;59.402;17.866;2023-11-22T09:15:49;101735.69;;;-1.83;80.89
19795;BME280;10057;59.402;17.866;2023-11-22T09:18:16;101722.00;;;-1.76;81.20
19795;BME280;10057;59.402;17.866;2023-11-22T09:20:43;101708.34;;;-1.69;81.11
19795;BME280;10057;59.402;17.866;2023-11-22T09:23:11;101692.06;;;-1.62;81.35
19795;BME280;10057;59.402;17.866;2023-11-22T09:25:38;101699.16;;;-1.56;81.46
19795;BME280;10057;59.402;17.866;2023-11-22T09:28:06;101678.41;;;-1.53;81.40
19795;BME280;10057;59.402;17.866;2023-11-22T09:30:34;101687.13;;;-1.51;81.15
19795;BME280;10057;59.402;17.866;2023-11-22T09:33:15;101675.94;;;-1.49;81.16
19795;BME280;10057;59.402;17.866;2023-11-22T09:35:43;101678.66;;;-1.44;81.35
19795;BME280;10057;59.402;17.866;2023-11-22T09:38:11;101677.84;;;-1.41;81.08
19795;BME280;10057;59.402;17.866;2023-11-22T09:40:47;101670.97;;;-1.39;81.33
19795;BME280;10057;59.402;17.866;2023-11-22T09:43:14;101655.47;;;-1.35;81.66
19795;BME280;10057;59.402;17.866;2023-11-22T09:45:44;101653.81;;;-1.33;81.37
19795;BME280;10057;59.402;17.866;2023-11-22T09:48:19;101650.31;;;-1.33;81.34
19795;BME280;10057;59.402;17.866;2023-11-22T09:50:50;101646.00;;;-1.33;81.34
19795;BME280;10057;59.402;17.866;2023-11-22T09:53:39;101626.03;;;-1.32;81.54
19795;BME280;10057;59.402;17.866;2023-11-22T09:56:08;101616.53;;;-1.30;81.38
19795;BME280;10057;59.402;17.866;2023-11-22T09:58:39;101600.91;;;-1.30;81.21
19795;BME280;10057;59.402;17.866;2023-11-22T10:01:07;101584.47;;;-1.29;81.61
19795;BME280;10057;59.402;17.866;2023-11-22T10:03:34;101581.94;;;-1.26;81.11
19795;BME280;10057;59.402;17.866;2023-11-22T10:06:03;101563.72;;;-1.25;81.77
19795;BME280;10057;59.402;17.866;2023-11-22T10:08:31;101546.44;;;-1.21;81.32
19795;BME280;10057;59.402;17.866;2023-11-22T10:10:58;101532.56;;;-1.20;81.38
19795;BME280;10057;59.402;17.866;2023-11-22T10:13:26;101520.50;;;-1.16;81.38
19795;BME280;10057;59.402;17.866;2023-11-22T10:15:53;101517.97;;;-1.13;81.38
19795;BME280;10057;59.402;17.866;2023-11-22T10:18:20;101525.84;;;-1.12;81.67
19795;BME280;10057;59.402;17.866;2023-11-22T10:20:49;101511.09;;;-1.10;81.40
19795;BME280;10057;59.402;17.866;2023-11-22T10:23:17;101510.38;;;-1.06;81.05
19795;BME280;10057;59.402;17.866;2023-11-22T10:25:54;101488.63;;;-1.06;81.60
19795;BME280;10057;59.402;17.866;2023-11-22T10:28:22;101489.63;;;-1.01;81.50
19795;BME280;10057;59.402;17.866;2023-11-22T10:30:52;101476.59;;;-1.01;81.25
19795;BME280;10057;59.402;17.866;2023-11-22T10:33:19;101476.66;;;-0.98;81.42
19795;BME280;10057;59.402;17.866;2023-11-22T10:35:50;101448.88;;;-0.98;81.24
19795;BME280;10057;59.402;17.866;2023-11-22T10:38:18;101444.59;;;-0.96;81.71
19795;BME280;10057;59.402;17.866;2023-11-22T10:40:46;101422.03;;;-0.95;81.56
19795;BME280;10057;59.402;17.866;2023-11-22T10:43:15;101424.72;;;-0.90;81.53
19795;BME280;10057;59.402;17.866;2023-11-22T10:45:44;101417.84;;;-0.87;81.95
19795;BME280;10057;59.402;17.866;2023-11-22T10:48:17;101406.56;;;-0.86;81.78
19795;BME280;10057;59.402;17.866;2023-11-22T10:50:45;101404.00;;;-0.84;81.68
19795;BME280;10057;59.402;17.866;2023-11-22T10:53:15;101384.03;;;-0.84;81.88
19795;BME280;10057;59.402;17.866;2023-11-22T10:55:45;101377.16;;;-0.79;81.49
19795;BME280;10057;59.402;17.866;2023-11-22T10:58:15;101372.00;;;-0.76;81.83
19795;BME280;10057;59.402;17.866;2023-11-22T11:00:45;101363.38;;;-0.73;82.09
19795;BME280;10057;59.402;17.866;2023-11-22T11:03:20;101350.34;;;-0.73;81.66
19795;BME280;10057;59.402;17.866;2023-11-22T11:05:56;101337.38;;;-0.70;82.01
19795;BME280;10057;59.402;17.866;2023-11-22T11:08:28;101327.03;;;-0.67;81.66
19795;BME280;10057;59.402;17.866;2023-11-22T11:10:56;101316.66;;;-0.64;81.82
19795;BME280;10057;59.402;17.866;2023-11-22T11:13:25;101300.16;;;-0.63;81.98
19795;BME280;10057;59.402;17.866;2023-11-22T11:15:53;101281.97;;;-0.58;81.77
19795;BME280;10057;59.402;17.866;2023-11-22T11:18:21;101267.25;;;-0.58;81.77
19795;BME280;10057;59.402;17.866;2023-11-22T11:20:52;101267.25;;;-0.56;81.55
19795;BME280;10057;59.402;17.866;2023-11-22T11:23:21;101243.84;;;-0.55;81.64
19795;BME280;10057;59.402;17.866;2023-11-22T11:25:59;101234.28;;;-0.53;82.11
19795;BME280;10057;59.402;17.866;2023-11-22T11:28:45;101235.22;;;-0.51;81.98
19795;BME280;10057;59.402;17.866;2023-11-22T11:31:14;101213.50;;;-0.48;81.80
19795;BME280;10057;59.402;17.866;2023-11-22T11:38:54;101184.91;;;-0.43;82.00
19795;BME280;10057;59.402;17.866;2023-11-22T11:41:32;101181.50;;;-0.39;81.93
19795;BME280;10057;59.402;17.866;2023-11-22T11:44:01;101167.63;;;-0.35;82.05
19795;BME280;10057;59.402;17.866;2023-11-22T11:46:29;101143.31;;;-0.34;81.89
19795;BME280;10057;59.402;17.866;2023-11-22T11:48:56;101142.44;;;-0.35;81.87
19795;BME280;10057;59.402;17.866;2023-11-22T11:51:25;101142.47;;;-0.32;82.02
19795;BME280;10057;59.402;17.866;2023-11-22T11:53:54;101114.72;;;-0.30;81.87
19795;BME280;10057;59.402;17.866;2023-11-22T11:56:22;101113.88;;;-0.27;82.09
19795;BME280;10057;59.402;17.866;2023-11-22T11:58:50;101114.75;;;-0.25;81.86
19795;BME280;10057;59.402;17.866;2023-11-22T12:01:17;101081.72;;;-0.26;82.23
19795;BME280;10057;59.402;17.866;2023-11-22T12:03:47;101072.16;;;-0.24;82.38
19795;BME280;10057;59.402;17.866;2023-11-22T12:06:16;101093.97;;;-0.19;81.94
19795;BME280;10057;59.402;17.866;2023-11-22T12:08:45;101075.75;;;-0.16;82.08
19795;BME280;10057;59.402;17.866;2023-11-22T12:11:14;101080.13;;;-0.15;81.89
19795;BME280;10057;59.402;17.866;2023-11-22T12:13:42;101070.59;;;-0.13;82.09
19795;BME280;10057;59.402;17.866;2023-11-22T12:16:17;101034.94;;;-0.12;82.09
19795;BME280;10057;59.402;17.866;2023-11-22T12:18:49;101046.28;;;-0.09;82.13
19795;BME280;10057;59.402;17.866;2023-11-22T12:21:16;101042.84;;;-0.06;81.87
19795;BME280;10057;59.402;17.866;2023-11-22T12:23:46;101038.50;;;-0.04;82.19
19795;BME280;10057;59.402;17.866;2023-11-22T12:26:17;101055.03;;;-0.04;81.92
19795;BME280;10057;59.402;17.866;2023-11-22T12:28:48;101015.94;;;-0.02;81.93
19795;BME280;10057;59.402;17.866;2023-11-22T12:31:29;101022.88;;;-0.01;81.98
19795;BME280;10057;59.402;17.866;2023-11-22T12:34:02;101000.28;;;-0.02;82.18
19795;BME280;10057;59.402;17.866;2023-11-22T12:36:29;100980.31;;;0.02;82.03
19795;BME280;10057;59.402;17.866;2023-11-22T12:38:56;100964.66;;;0.02;82.15
19795;BME280;10057;59.402;17.866;2023-11-22T12:41:27;100971.66;;;0.06;82.09
19795;BME280;10057;59.402;17.866;2023-11-22T12:44:05;100966.44;;;0.06;81.76
19795;BME280;10057;59.402;17.866;2023-11-22T12:46:50;100964.72;;;0.08;82.14
19795;BME280;10057;59.402;17.866;2023-11-22T12:49:24;100944.72;;;0.08;82.14
19795;BME280;10057;59.402;17.866;2023-11-22T12:51:53;100945.59;;;0.09;81.91